Time;durP1;ratioP1;P1;durP2;ratioP2;P2;SDS_P1;SDS_P2;PMS_P1;PMS_P2;Temp;Humidity;BMP_temperature;BMP_pressure;BME280_temperature;BME280_humidity;BME280_pressure;Samples;Min_cycle;Max_cycle;Signal;HPM_P1;HPM_P2
2021/03/05 00:00:11;;;;;;;1.73;1.27;;;20.60;53.50;;;;;;5016363;28;20116;-47
2021/03/05 00:02:37;;;;;;;2.05;1.20;;;20.60;53.50;;;;;;5031736;28;20112;-45
2021/03/05 00:05:04;;;;;;;3.28;1.58;;;20.60;53.40;;;;;;5033638;28;20045;-44
2021/03/05 00:07:29;;;;;;;1.58;1.25;;;20.60;53.30;;;;;;5028944;28;20029;-45
2021/03/05 00:09:55;;;;;;;3.15;1.60;;;20.60;53.20;;;;;;5033287;28;20039;-44
2021/03/05 00:12:21;;;;;;;3.40;1.20;;;20.60;53.20;;;;;;5027460;28;20068;-47
2021/03/05 00:14:47;;;;;;;3.85;1.20;;;20.60;53.20;;;;;;5033941;28;20051;-47
2021/03/05 00:17:12;;;;;;;2.00;1.27;;;20.60;53.20;;;;;;5033520;28;20451;-44
2021/03/05 00:19:38;;;;;;;2.42;1.30;;;20.60;53.00;;;;;;5033387;28;20047;-46
2021/03/05 00:22:06;;;;;;;2.92;1.30;;;20.60;53.00;;;;;;5032369;28;20043;-51
2021/03/05 00:24:32;;;;;;;1.98;1.25;;;20.60;53.00;;;;;;5034226;28;20033;-45
2021/03/05 00:26:57;;;;;;;2.63;1.27;;;20.60;53.00;;;;;;5033070;28;20052;-50
2021/03/05 00:29:23;;;;;;;2.55;1.67;;;20.70;52.90;;;;;;5015918;28;20064;-46
2021/03/05 00:31:49;;;;;;;2.15;1.15;;;20.70;53.00;;;;;;5026494;28;20061;-47
2021/03/05 00:34:15;;;;;;;1.55;1.25;;;20.70;53.00;;;;;;5030308;28;20053;-46
2021/03/05 00:36:41;;;;;;;2.30;1.50;;;20.70;53.10;;;;;;5025023;28;20033;-51
2021/03/05 00:39:06;;;;;;;2.03;1.40;;;20.70;53.10;;;;;;5032850;28;20037;-46
2021/03/05 00:41:33;;;;;;;1.88;1.25;;;20.60;53.10;;;;;;5024752;28;20034;-51
2021/03/05 00:43:59;;;;;;;2.88;1.20;;;20.70;53.20;;;;;;5007709;28;20043;-48
2021/03/05 00:46:24;;;;;;;2.05;1.33;;;20.60;53.10;;;;;;5029477;28;20033;-46
2021/03/05 00:48:50;;;;;;;1.63;1.20;;;20.60;53.10;;;;;;5033073;28;20359;-48
2021/03/05 00:51:16;;;;;;;2.33;1.38;;;20.60;53.20;;;;;;5033750;28;20510;-48
2021/03/05 00:53:42;;;;;;;6.15;1.80;;;20.60;53.10;;;;;;5033158;28;20493;-48
2021/03/05 00:56:07;;;;;;;1.83;1.40;;;20.60;53.00;;;;;;5033113;28;20022;-49
2021/03/05 00:58:33;;;;;;;2.90;1.73;;;20.60;53.00;;;;;;5032808;28;20367;-48
2021/03/05 01:00:59;;;;;;;2.92;1.55;;;20.60;52.90;;;;;;5016213;28;20030;-49
2021/03/05 01:03:24;;;;;;;2.63;1.65;;;20.60;52.90;;;;;;5034149;28;20052;-50
2021/03/05 01:05:50;;;;;;;2.53;1.42;;;20.60;52.80;;;;;;5032414;28;20038;-50
2021/03/05 01:08:16;;;;;;;2.05;1.30;;;20.60;52.80;;;;;;5033760;28;20030;-48
2021/03/05 01:10:42;;;;;;;2.08;1.38;;;20.60;53.40;;;;;;5033462;28;20033;-46
2021/03/05 01:13:08;;;;;;;1.77;1.30;;;20.60;52.80;;;;;;5032673;28;20212;-46
2021/03/05 01:15:33;;;;;;;2.42;1.52;;;20.60;52.70;;;;;;5032178;28;20026;-47
2021/03/05 01:17:59;;;;;;;1.95;1.23;;;20.60;52.70;;;;;;5024999;28;20037;-46
2021/03/05 01:20:26;;;;;;;3.40;1.60;;;20.60;52.70;;;;;;5031319;28;20450;-47
2021/03/05 01:22:52;;;;;;;1.92;1.40;;;20.60;52.60;;;;;;5030775;28;20402;-46
2021/03/05 01:25:24;;;;;;;2.95;1.92;;;20.60;52.60;;;;;;5029478;28;20025;-45
2021/03/05 01:27:50;;;;;;;2.67;1.80;;;20.60;52.50;;;;;;5031736;28;20037;-53
2021/03/05 01:30:16;;;;;;;3.08;1.73;;;20.60;52.50;;;;;;5033098;28;20485;-47
2021/03/05 01:32:43;;;;;;;2.35;1.65;;;20.60;52.50;;;;;;5031593;28;20514;-49
2021/03/05 01:35:14;;;;;;;2.22;1.80;;;20.60;52.40;;;;;;5029839;28;20120;-47
2021/03/05 01:37:41;;;;;;;2.28;1.85;;;20.60;52.40;;;;;;5026280;28;20083;-48
2021/03/05 01:40:12;;;;;;;3.17;1.90;;;20.60;52.30;;;;;;5024379;28;20775;-46
2021/03/05 01:42:38;;;;;;;3.28;2.13;;;20.60;52.30;;;;;;5024627;28;20037;-49
2021/03/05 01:45:08;;;;;;;3.15;2.05;;;20.60;52.30;;;;;;5027603;28;20069;-51
2021/03/05 01:47:33;;;;;;;2.08;1.80;;;20.60;52.30;;;;;;5024891;28;20374;-47
2021/03/05 01:49:59;;;;;;;2.28;1.65;;;20.60;52.10;;;;;;5031437;28;20042;-49
2021/03/05 01:52:25;;;;;;;4.50;2.30;;;20.60;52.10;;;;;;5023905;28;20534;-48
2021/03/05 01:54:51;;;;;;;3.00;2.00;;;20.60;52.00;;;;;;5026872;28;20475;-48
2021/03/05 02:00:49;;;;;;;2.83;2.30;;;20.60;52.00;;;;;;5030337;28;20128;-48
2021/03/05 02:03:14;;;;;;;2.42;1.70;;;20.60;52.00;;;;;;5024751;28;20029;-46
2021/03/05 02:05:40;;;;;;;2.90;1.75;;;20.60;51.90;;;;;;5026571;28;20033;-49
2021/03/05 02:08:08;;;;;;;2.72;1.90;;;20.60;51.90;;;;;;5031530;28;20211;-49
2021/03/05 02:10:33;;;;;;;3.28;2.47;;;20.60;51.80;;;;;;5031055;28;20100;-47
2021/03/05 02:12:59;;;;;;;4.03;2.45;;;20.60;51.80;;;;;;5031296;28;20140;-50
2021/03/05 02:15:25;;;;;;;2.78;2.13;;;20.60;51.70;;;;;;5029236;28;20105;-48
2021/03/05 02:18:17;;;;;;;2.92;2.38;;;20.60;51.60;;;;;;5020221;28;20113;-51
2021/03/05 02:21:11;;;;;;;4.80;2.70;;;20.60;51.70;;;;;;5009012;28;20482;-46
2021/03/05 02:23:55;;;;;;;4.30;2.42;;;20.60;51.50;;;;;;5031638;28;20382;-46
2021/03/05 02:26:38;;;;;;;4.07;3.33;;;20.60;51.50;;;;;;5010490;28;20033;-45
2021/03/05 02:29:13;;;;;;;3.50;2.38;;;20.60;51.40;;;;;;5030698;28;20033;-45
2021/03/05 02:31:47;;;;;;;4.60;2.70;;;20.60;51.40;;;;;;5027964;28;20072;-45
2021/03/05 02:34:35;;;;;;;3.03;2.47;;;20.60;51.30;;;;;;5030006;28;20081;-44
2021/03/05 02:37:06;;;;;;;3.17;2.28;;;20.60;51.30;;;;;;5030000;28;20029;-45
2021/03/05 02:39:51;;;;;;;3.13;2.20;;;20.60;51.30;;;;;;5014217;28;20041;-45
2021/03/05 02:43:01;;;;;;;4.70;2.80;;;20.60;51.20;;;;;;5024204;28;20052;-44
2021/03/05 02:45:30;;;;;;;4.60;2.53;;;20.60;51.20;;;;;;5010806;28;20159;-48
2021/03/05 02:48:02;;;;;;;2.83;2.28;;;20.60;51.20;;;;;;5018055;28;20383;-45
2021/03/05 02:50:31;;;;;;;4.65;2.60;;;20.60;51.10;;;;;;5031819;28;20033;-44
2021/03/05 02:53:01;;;;;;;3.45;2.65;;;20.60;51.10;;;;;;5030035;28;20052;-45
2021/03/05 02:55:28;;;;;;;3.20;2.20;;;20.60;51.00;;;;;;5030960;28;20025;-46
2021/03/05 02:57:58;;;;;;;3.35;2.63;;;20.60;51.00;;;;;;5028182;28;20112;-45
2021/03/05 03:00:26;;;;;;;3.35;2.50;;;20.60;50.90;;;;;;5031606;28;20037;-44
2021/03/05 03:02:56;;;;;;;3.97;2.45;;;20.60;50.90;;;;;;5027353;28;20057;-50
2021/03/05 03:05:24;;;;;;;3.17;2.22;;;20.60;50.80;;;;;;5029358;28;20041;-45
2021/03/05 03:07:50;;;;;;;3.40;2.65;;;20.60;50.90;;;;;;5030827;28;20363;-50
2021/03/05 03:10:20;;;;;;;3.65;2.80;;;20.60;50.80;;;;;;5030942;28;20025;-46
2021/03/05 03:12:46;;;;;;;3.70;2.72;;;20.60;50.80;;;;;;5029735;28;20474;-45
2021/03/05 03:15:13;;;;;;;4.30;2.80;;;20.60;50.70;;;;;;5012367;28;20562;-46
2021/03/05 03:17:41;;;;;;;5.40;2.70;;;20.60;50.60;;;;;;5024912;28;20079;-45
2021/03/05 03:20:09;;;;;;;4.20;2.83;;;20.60;50.60;;;;;;5030356;28;20037;-45
2021/03/05 03:22:34;;;;;;;3.88;2.88;;;20.60;50.60;;;;;;5030001;28;20082;-44
2021/03/05 03:25:01;;;;;;;2.83;2.38;;;20.60;50.60;;;;;;5013001;28;20467;-45
2021/03/05 03:27:27;;;;;;;3.30;2.35;;;20.60;50.50;;;;;;5023490;28;20036;-45
2021/03/05 03:29:53;;;;;;;3.17;2.58;;;20.60;50.50;;;;;;5030594;28;20033;-49
2021/03/05 03:32:19;;;;;;;3.90;2.47;;;20.60;50.40;;;;;;5030026;28;20025;-45
2021/03/05 03:34:44;;;;;;;3.70;2.50;;;20.60;50.40;;;;;;5031223;28;20029;-45
2021/03/05 03:37:11;;;;;;;4.15;2.60;;;20.60;50.40;;;;;;5025967;28;20079;-45
2021/03/05 03:39:38;;;;;;;3.55;2.90;;;20.60;50.40;;;;;;5031049;28;20045;-46
2021/03/05 03:42:05;;;;;;;3.45;2.55;;;20.60;50.30;;;;;;5028831;28;20394;-47
2021/03/05 03:44:30;;;;;;;3.42;2.70;;;20.60;50.30;;;;;;5013516;28;20079;-45
2021/03/05 03:46:58;;;;;;;3.17;2.40;;;20.60;50.20;;;;;;5021249;28;20037;-46
2021/03/05 03:49:35;;;;;;;3.78;2.70;;;20.60;50.20;;;;;;5012114;28;20470;-44
2021/03/05 03:52:05;;;;;;;3.42;2.75;;;20.60;50.20;;;;;;5029868;28;20061;-45
2021/03/05 03:54:32;;;;;;;3.33;2.67;;;20.60;50.10;;;;;;5028020;28;20076;-44
2021/03/05 03:57:01;;;;;;;2.83;2.30;;;20.60;50.10;;;;;;5028221;28;20025;-45
2021/03/05 03:59:31;;;;;;;3.53;2.20;;;20.60;50.10;;;;;;5030462;28;20064;-45
2021/03/05 04:01:58;;;;;;;2.53;2.22;;;20.60;50.10;;;;;;5029260;28;20061;-45
2021/03/05 04:04:26;;;;;;;2.90;2.28;;;20.60;50.10;;;;;;5030764;28;20038;-45
2021/03/05 04:06:52;;;;;;;3.03;2.50;;;20.60;50.00;;;;;;5020389;28;20030;-50
2021/03/05 04:09:18;;;;;;;3.03;2.63;;;20.60;50.00;;;;;;5030358;28;20053;-45
2021/03/05 04:11:45;;;;;;;2.63;2.20;;;20.60;50.00;;;;;;5029867;28;20033;-45
2021/03/05 04:14:10;;;;;;;2.80;1.80;;;20.60;49.90;;;;;;5029491;28;20029;-45
2021/03/05 04:16:36;;;;;;;3.70;2.90;;;20.60;49.90;;;;;;5030464;28;20374;-44
2021/03/05 04:19:03;;;;;;;2.83;2.30;;;20.60;49.80;;;;;;5015545;28;20129;-46
2021/03/05 04:21:32;;;;;;;2.58;1.95;;;20.60;49.80;;;;;;5032149;28;20037;-47
2021/03/05 04:23:58;;;;;;;2.33;2.13;;;20.60;49.70;;;;;;5015396;28;20021;-47
2021/03/05 04:26:24;;;;;;;2.90;2.50;;;20.60;49.70;;;;;;5031876;28;20454;-45
2021/03/05 04:28:50;;;;;;;2.85;2.20;;;20.60;49.70;;;;;;5033227;28;20117;-45
2021/03/05 04:31:16;;;;;;;2.47;1.85;;;20.60;49.70;;;;;;5033153;28;20104;-45
2021/03/05 04:33:41;;;;;;;5.82;2.20;;;20.60;49.70;;;;;;5031392;28;20041;-46
2021/03/05 04:36:07;;;;;;;2.85;2.00;;;20.60;49.70;;;;;;5032423;28;20029;-45
2021/03/05 04:38:33;;;;;;;2.20;1.70;;;20.60;49.70;;;;;;5016095;28;20033;-45
2021/03/05 04:40:58;;;;;;;2.50;2.10;;;20.60;49.70;;;;;;5033046;28;20096;-48
2021/03/05 04:43:24;;;;;;;2.15;1.73;;;20.60;49.60;;;;;;5033706;28;20037;-45
2021/03/05 04:45:50;;;;;;;2.92;2.20;;;20.60;49.70;;;;;;5031922;28;20060;-45
2021/03/05 04:48:16;;;;;;;2.13;1.80;;;20.60;49.70;;;;;;5026752;28;20135;-48
2021/03/05 04:50:42;;;;;;;2.53;1.95;;;20.60;49.60;;;;;;5031526;28;20097;-50
2021/03/05 04:53:07;;;;;;;2.20;2.00;;;20.60;49.50;;;;;;5032854;28;20435;-47
2021/03/05 04:55:34;;;;;;;2.33;1.88;;;20.60;49.50;;;;;;5033405;28;20056;-47
2021/03/05 04:57:59;;;;;;;2.38;1.80;;;20.60;49.40;;;;;;5031657;28;20057;-47
2021/03/05 05:00:26;;;;;;;2.55;1.95;;;20.60;49.40;;;;;;5015964;28;20114;-44
2021/03/05 05:02:52;;;;;;;2.00;1.77;;;20.60;49.40;;;;;;5005105;28;20038;-46
2021/03/05 05:05:17;;;;;;;2.65;1.85;;;20.60;49.30;;;;;;5025987;28;20089;-45
2021/03/05 05:07:43;;;;;;;2.90;2.05;;;20.60;49.30;;;;;;5025768;28;20100;-46
2021/03/05 05:10:10;;;;;;;2.33;1.90;;;20.60;49.30;;;;;;5025318;28;20076;-45
2021/03/05 05:12:36;;;;;;;2.05;1.83;;;20.60;49.20;;;;;;5028537;28;20045;-46
2021/03/05 05:15:03;;;;;;;3.22;2.15;;;20.60;49.20;;;;;;5024621;28;20398;-49
2021/03/05 05:17:29;;;;;;;2.03;1.67;;;20.60;49.20;;;;;;5022107;28;20044;-46
2021/03/05 05:19:54;;;;;;;1.95;1.40;;;20.60;49.20;;;;;;5023478;28;20033;-45
2021/03/05 05:22:20;;;;;;;3.03;2.17;;;20.60;49.20;;;;;;5009391;28;20644;-45
2021/03/05 05:24:46;;;;;;;1.83;1.58;;;20.60;49.10;;;;;;5021644;28;20108;-50
2021/03/05 05:27:12;;;;;;;2.05;1.48;;;20.60;49.10;;;;;;5021788;28;20431;-46
2021/03/05 05:29:37;;;;;;;2.08;1.70;;;20.60;49.10;;;;;;5021827;28;20108;-49
2021/03/05 05:32:03;;;;;;;2.17;1.63;;;20.60;49.10;;;;;;5021517;28;20032;-53
2021/03/05 05:34:29;;;;;;;2.75;1.50;;;20.60;49.10;;;;;;5022978;28;20446;-52
2021/03/05 05:36:54;;;;;;;1.75;1.65;;;20.60;49.10;;;;;;5025396;28;20049;-48
2021/03/05 05:39:20;;;;;;;2.10;1.70;;;20.60;49.10;;;;;;5023904;28;20095;-48
2021/03/05 05:41:46;;;;;;;1.98;1.63;;;20.60;49.00;;;;;;5006063;28;20053;-46
2021/03/05 05:44:11;;;;;;;2.53;1.92;;;20.60;49.00;;;;;;5022238;28;20368;-47
2021/03/05 05:46:39;;;;;;;2.00;1.50;;;20.60;48.90;;;;;;5021756;28;20038;-50
2021/03/05 05:49:05;;;;;;;2.40;1.75;;;20.60;48.90;;;;;;5024486;28;20502;-45
2021/03/05 05:51:34;;;;;;;2.28;1.58;;;20.60;48.90;;;;;;5023921;28;20033;-45
2021/03/05 05:54:06;;;;;;;3.70;1.75;;;20.60;48.90;;;;;;5021960;28;20527;-48
2021/03/05 05:56:32;;;;;;;2.17;1.42;;;20.60;48.90;;;;;;5022166;28;20052;-44
2021/03/05 05:58:58;;;;;;;2.03;1.48;;;20.60;48.80;;;;;;5022102;28;20030;-45
2021/03/05 06:01:24;;;;;;;2.33;1.50;;;20.60;48.90;;;;;;5023788;28;20025;-45
2021/03/05 06:03:49;;;;;;;2.20;1.90;;;20.60;48.80;;;;;;5020589;28;20488;-46
2021/03/05 06:06:16;;;;;;;2.63;1.40;;;20.60;48.70;;;;;;5021026;28;20037;-46
2021/03/05 06:08:42;;;;;;;2.40;1.45;;;20.60;48.80;;;;;;5023738;28;20113;-46
2021/03/05 06:11:08;;;;;;;1.92;1.40;;;20.60;48.70;;;;;;5022300;28;20386;-49
2021/03/05 06:13:34;;;;;;;2.03;1.60;;;20.60;48.70;;;;;;5021258;28;20101;-45
2021/03/05 06:16:12;;;;;;;1.83;1.40;;;20.60;48.60;;;;;;5020590;28;20056;-51
2021/03/05 06:18:38;;;;;;;1.80;1.35;;;20.60;48.60;;;;;;5024193;28;20041;-45
2021/03/05 06:21:03;;;;;;;2.03;1.55;;;20.60;48.70;;;;;;5020399;28;20088;-48
2021/03/05 06:23:29;;;;;;;1.63;1.40;;;20.60;48.60;;;;;;5026846;28;20034;-48
2021/03/05 06:25:59;;;;;;;1.40;1.30;;;20.60;48.60;;;;;;5031662;28;20030;-46
2021/03/05 06:28:26;;;;;;;2.00;1.60;;;20.60;48.60;;;;;;5030359;28;20083;-44
2021/03/05 06:30:52;;;;;;;1.77;1.30;;;20.70;48.60;;;;;;5026135;28;20100;-51
2021/03/05 06:33:28;;;;;;;2.58;1.58;;;20.80;48.60;;;;;;5013664;28;20038;-44
2021/03/05 06:36:13;;;;;;;2.63;1.27;;;20.80;48.50;;;;;;5023220;28;20049;-45
2021/03/05 06:38:44;;;;;;;4.05;1.63;;;20.80;48.30;;;;;;5029079;28;20047;-47
2021/03/05 06:41:27;;;;;;;4.70;2.15;;;20.90;48.30;;;;;;5024807;28;20441;-46
2021/03/05 06:43:55;;;;;;;1.55;1.20;;;20.90;48.20;;;;;;5026141;28;20470;-44
2021/03/05 06:46:32;;;;;;;1.92;1.30;;;20.90;48.10;;;;;;5028985;28;20026;-45
2021/03/05 06:48:59;;;;;;;3.33;1.85;;;20.90;48.10;;;;;;5012233;28;20502;-46
2021/03/05 06:51:25;;;;;;;2.75;1.65;;;20.90;48.10;;;;;;5030275;28;20071;-46
2021/03/05 06:54:14;;;;;;;2.28;1.75;;;20.90;48.10;;;;;;5025864;28;20355;-45
2021/03/05 06:56:42;;;;;;;4.55;1.40;;;20.90;48.20;;;;;;5023737;28;20076;-47
2021/03/05 06:59:12;;;;;;;2.10;1.33;;;20.90;48.20;;;;;;5030323;28;20033;-44
2021/03/05 07:01:46;;;;;;;6.53;1.60;;;20.90;48.10;;;;;;5029697;28;20037;-45
2021/03/05 07:04:15;;;;;;;2.67;1.50;;;20.90;48.10;;;;;;5030815;28;20040;-46
2021/03/05 07:06:41;;;;;;;1.90;1.67;;;20.80;48.00;;;;;;5029327;28;20032;-46
2021/03/05 07:09:08;;;;;;;1.63;1.13;;;20.80;48.10;;;;;;5012503;28;20044;-47
2021/03/05 07:11:44;;;;;;;1.95;1.50;;;20.80;48.10;;;;;;5031158;28;20100;-47
2021/03/05 07:14:12;;;;;;;1.80;1.25;;;20.80;48.00;;;;;;5022525;28;20037;-45
2021/03/05 07:16:48;;;;;;;2.80;1.33;;;20.80;48.10;;;;;;5029385;28;20029;-48
2021/03/05 07:19:18;;;;;;;1.55;1.15;;;20.80;48.00;;;;;;5010311;28;20025;-45
2021/03/05 07:21:49;;;;;;;1.85;1.30;;;20.80;48.00;;;;;;5026598;28;20022;-48
2021/03/05 07:24:17;;;;;;;2.17;1.35;;;20.80;48.00;;;;;;5029704;28;20386;-45
2021/03/05 07:26:52;;;;;;;1.63;1.20;;;20.80;48.10;;;;;;5030290;28;20051;-45
2021/03/05 07:29:23;;;;;;;4.05;1.20;;;20.80;48.00;;;;;;5029989;28;20065;-46
2021/03/05 07:31:56;;;;;;;2.50;1.38;;;20.80;48.20;;;;;;5023713;28;20037;-48
2021/03/05 07:34:24;;;;;;;9.10;1.92;;;20.80;48.40;;;;;;5026503;28;20042;-48
2021/03/05 07:36:50;;;;;;;8.00;1.83;;;20.80;48.60;;;;;;5028901;28;20033;-44
2021/03/05 07:39:27;;;;;;;4.72;1.77;;;20.80;49.30;;;;;;5020236;28;20057;-45
2021/03/05 07:41:54;;;;;;;4.65;1.80;;;20.80;49.60;;;;;;5022103;28;20437;-45
2021/03/05 07:44:21;;;;;;;4.60;1.50;;;20.80;49.50;;;;;;5020169;28;20064;-45
2021/03/05 07:46:47;;;;;;;10.68;1.67;;;20.80;49.80;;;;;;5021247;28;20042;-45
2021/03/05 07:49:14;;;;;;;7.72;1.75;;;20.80;49.60;;;;;;5001709;28;20034;-46
2021/03/05 07:51:41;;;;;;;6.32;1.98;;;20.80;49.50;;;;;;5005676;28;20033;-46
2021/03/05 07:54:07;;;;;;;4.35;2.00;;;20.80;50.30;;;;;;5028793;28;20025;-46
2021/03/05 07:56:40;;;;;;;5.10;2.05;;;20.80;50.20;;;;;;5024807;28;20104;-46
2021/03/05 07:59:06;;;;;;;10.20;2.10;;;20.80;50.40;;;;;;5029303;28;20087;-50
2021/03/05 08:01:50;;;;;;;8.27;2.33;;;20.80;50.50;;;;;;5025294;28;20066;-46
2021/03/05 08:04:15;;;;;;;7.32;2.10;;;20.70;50.30;;;;;;5027942;28;20425;-45
2021/03/05 08:06:41;;;;;;;6.85;2.70;;;20.70;50.40;;;;;;5010488;28;20073;-50
2021/03/05 08:09:13;;;;;;;6.15;2.50;;;20.70;50.30;;;;;;5023948;28;20033;-42
2021/03/05 08:11:39;;;;;;;;;;;20.70;50.10;;;;;;5025295;28;20040;-43
2021/03/05 08:14:25;;;;;;;11.05;2.33;;;20.70;50.10;;;;;;5026467;28;19915;-47
2021/03/05 08:16:52;;;;;;;3.47;1.90;;;20.70;50.00;;;;;;5006473;28;20037;-48
2021/03/05 08:19:18;;;;;;;5.10;2.20;;;20.70;49.90;;;;;;5024822;28;20467;-43
2021/03/05 08:21:57;;;;;;;7.57;2.45;;;20.70;49.70;;;;;;5024596;28;20074;-49
2021/03/05 08:24:28;;;;;;;7.20;2.25;;;20.70;49.70;;;;;;5025883;28;20116;-45
2021/03/05 08:27:01;;;;;;;4.10;2.17;;;20.80;49.90;;;;;;5023678;28;20112;-43
2021/03/05 08:30:04;;;;;;;5.70;1.50;;;20.80;50.00;;;;;;5004499;28;20034;-44
2021/03/05 08:32:32;;;;;;;3.38;1.85;;;20.80;50.00;;;;;;5006490;28;20518;-43
2021/03/05 08:35:04;;;;;;;14.90;2.05;;;20.80;50.00;;;;;;5026236;28;20419;-47
2021/03/05 08:37:35;;;;;;;11.77;2.58;;;20.80;50.20;;;;;;5024101;28;20033;-45
2021/03/05 08:40:10;;;;;;;13.57;2.23;;;20.90;50.20;;;;;;5023834;28;20033;-43
2021/03/05 08:42:40;;;;;;;21.30;2.35;;;20.90;50.80;;;;;;5026579;28;20445;-44
2021/03/05 08:45:11;;;;;;;13.10;2.38;;;20.90;50.20;;;;;;5023130;28;20026;-48
2021/03/05 08:47:38;;;;;;;22.95;2.42;;;20.90;50.80;;;;;;5025874;28;20099;-46
2021/03/05 08:50:05;;;;;;;14.07;2.45;;;20.90;50.20;;;;;;5033810;28;20429;-47
2021/03/05 08:52:32;;;;;;;17.35;2.72;;;20.90;50.20;;;;;;5031546;28;20056;-46
2021/03/05 08:54:58;;;;;;;22.90;2.70;;;20.90;50.20;;;;;;5026255;28;20048;-44
2021/03/05 08:57:24;;;;;;;15.50;2.50;;;20.90;50.00;;;;;;5025586;28;20030;-44
2021/03/05 08:59:51;;;;;;;8.10;2.10;;;20.80;50.00;;;;;;5023120;28;20038;-49
2021/03/05 09:02:17;;;;;;;13.65;2.10;;;20.80;50.10;;;;;;5022185;28;20083;-45
2021/03/05 09:04:43;;;;;;;11.23;2.33;;;20.80;50.00;;;;;;5022716;28;20033;-49
2021/03/05 09:07:15;;;;;;;6.88;1.85;;;20.80;49.90;;;;;;5014436;28;20030;-50
2021/03/05 09:09:49;;;;;;;;;;;20.80;49.90;;;;;;5022394;28;20030;-46
2021/03/05 09:12:17;;;;;;;7.82;2.10;;;20.80;49.90;;;;;;5022762;28;20321;-45
2021/03/05 09:14:44;;;;;;;7.15;2.00;;;20.70;49.70;;;;;;5025356;28;20037;-45
2021/03/05 09:17:12;;;;;;;6.35;1.70;;;20.80;49.80;;;;;;5026298;28;20038;-47
2021/03/05 09:19:46;;;;;;;10.32;2.97;;;20.70;49.70;;;;;;5022168;28;20033;-48
2021/03/05 09:22:23;;;;;;;9.05;1.80;;;20.70;50.30;;;;;;5027570;28;20083;-45
2021/03/05 09:24:53;;;;;;;11.30;1.67;;;20.70;49.70;;;;;;5029963;28;20046;-46
2021/03/05 09:27:27;;;;;;;11.55;1.70;;;20.70;49.60;;;;;;5028076;28;20025;-49
2021/03/05 09:29:53;;;;;;;10.57;1.58;;;20.70;49.60;;;;;;5031839;28;20107;-49
2021/03/05 09:32:19;;;;;;;7.63;1.80;;;20.70;49.50;;;;;;5030779;28;20029;-46
2021/03/05 09:34:55;;;;;;;8.40;1.60;;;20.70;49.30;;;;;;5031934;28;20079;-46
2021/03/05 09:37:24;;;;;;;7.20;1.50;;;20.70;49.40;;;;;;5027825;28;20072;-46
2021/03/05 09:39:52;;;;;;;5.82;1.58;;;20.70;49.30;;;;;;5029217;28;20505;-45
2021/03/05 09:42:37;;;;;;;4.63;1.55;;;20.70;49.30;;;;;;5029504;28;20040;-48
2021/03/05 09:45:03;;;;;;;7.75;1.98;;;20.70;49.20;;;;;;5024030;28;20072;-50
2021/03/05 09:47:45;;;;;;;4.80;1.50;;;20.70;49.20;;;;;;5026198;28;20057;-45
2021/03/05 09:50:22;;;;;;;7.40;1.45;;;20.60;49.10;;;;;;5013210;28;20033;-45
2021/03/05 09:52:48;;;;;;;4.15;1.58;;;20.60;49.10;;;;;;5026384;28;20041;-46
2021/03/05 09:55:23;;;;;;;4.47;1.75;;;20.60;49.00;;;;;;5022236;28;20034;-46
2021/03/05 09:57:49;;;;;;;2.75;1.58;;;20.70;49.00;;;;;;5030790;28;20033;-45
2021/03/05 10:00:31;;;;;;;6.70;1.30;;;20.70;49.20;;;;;;5027944;28;20034;-48
2021/03/05 10:03:04;;;;;;;;;;;20.70;49.00;;;;;;5013949;28;20374;-46
2021/03/05 10:05:31;;;;;;;3.38;1.40;;;20.70;48.90;;;;;;5031380;28;19959;-46
2021/03/05 10:07:57;;;;;;;3.53;1.27;;;20.70;48.90;;;;;;5029255;28;20112;-45
2021/03/05 10:10:23;;;;;;;5.18;1.25;;;20.70;49.00;;;;;;5029246;28;20112;-47
2021/03/05 10:12:54;;;;;;;6.80;1.30;;;20.70;48.90;;;;;;5031776;28;20409;-47
2021/03/05 10:15:20;;;;;;;4.03;1.60;;;20.60;48.80;;;;;;5030886;28;20386;-48
2021/03/05 10:17:46;;;;;;;3.75;1.33;;;20.70;48.80;;;;;;5021569;28;20030;-46
2021/03/05 10:20:13;;;;;;;3.55;1.20;;;20.60;48.70;;;;;;5024972;28;20083;-47
2021/03/05 10:22:38;;;;;;;4.15;1.63;;;20.60;48.70;;;;;;5028416;28;20056;-46
2021/03/05 10:25:05;;;;;;;4.53;1.40;;;20.60;48.80;;;;;;5032164;28;20108;-50
2021/03/05 10:27:44;;;;;;;4.13;1.50;;;20.60;48.70;;;;;;5008187;28;20030;-50
2021/03/05 10:30:10;;;;;;;6.35;1.80;;;20.60;48.70;;;;;;5028579;28;20489;-52
2021/03/05 10:32:39;;;;;;;7.05;1.50;;;20.60;48.70;;;;;;5031071;28;20136;-47
2021/03/05 10:35:12;;;;;;;4.97;1.65;;;20.60;48.70;;;;;;5031568;28;20033;-45
2021/03/05 10:37:39;;;;;;;3.05;1.20;;;20.60;48.80;;;;;;5031318;28;20481;-45
2021/03/05 10:40:07;;;;;;;4.97;1.40;;;20.70;48.70;;;;;;5031644;28;20036;-45
2021/03/05 10:42:33;;;;;;;5.45;1.77;;;20.60;48.70;;;;;;5031230;28;20032;-48
2021/03/05 10:44:58;;;;;;;6.85;1.60;;;20.60;48.70;;;;;;5031278;28;20021;-45
2021/03/05 10:47:24;;;;;;;5.32;1.58;;;20.60;48.60;;;;;;5030889;28;20128;-47
2021/03/05 10:49:51;;;;;;;3.88;1.33;;;20.60;48.60;;;;;;5013281;28;20033;-46
2021/03/05 10:52:22;;;;;;;2.92;1.40;;;20.60;48.60;;;;;;5022950;28;20048;-49
2021/03/05 10:54:47;;;;;;;2.78;1.27;;;20.60;48.50;;;;;;5013648;28;20078;-46
2021/03/05 10:57:17;;;;;;;5.93;2.05;;;20.60;48.50;;;;;;5030394;28;20055;-46
2021/03/05 10:59:46;;;;;;;5.45;1.60;;;20.60;48.60;;;;;;5013408;28;20036;-44
2021/03/05 11:02:13;;;;;;;3.03;1.20;;;20.60;48.60;;;;;;5030688;28;20026;-47
2021/03/05 11:04:39;;;;;;;5.03;1.40;;;20.60;48.60;;;;;;5022727;28;20030;-44
2021/03/05 11:07:05;;;;;;;4.72;1.30;;;20.60;48.50;;;;;;5031260;28;20057;-46
2021/03/05 11:09:31;;;;;;;3.10;1.73;;;20.60;48.40;;;;;;5030220;28;20134;-46
2021/03/05 11:11:57;;;;;;;6.95;1.58;;;20.60;48.40;;;;;;5031132;28;20036;-48
2021/03/05 11:14:25;;;;;;;3.92;1.40;;;20.60;48.40;;;;;;5030421;28;20100;-45
2021/03/05 11:16:52;;;;;;;4.38;1.30;;;20.60;48.40;;;;;;5028724;28;20034;-45
2021/03/05 11:19:18;;;;;;;4.05;1.30;;;20.60;48.30;;;;;;5029990;28;20363;-47
2021/03/05 11:21:44;;;;;;;3.65;1.35;;;20.60;48.40;;;;;;5027428;28;20029;-46
2021/03/05 11:24:11;;;;;;;3.33;1.20;;;20.60;48.40;;;;;;5030773;28;20034;-48
2021/03/05 11:26:36;;;;;;;4.35;1.55;;;20.60;48.30;;;;;;5029373;28;20030;-44
2021/03/05 11:29:03;;;;;;;5.82;1.52;;;20.60;48.20;;;;;;5034565;28;20033;-49
2021/03/05 11:31:29;;;;;;;4.13;1.30;;;20.60;48.30;;;;;;5028313;28;20045;-45
2021/03/05 11:33:54;;;;;;;5.68;1.60;;;20.60;48.20;;;;;;5025651;28;20049;-44
2021/03/05 11:36:21;;;;;;;4.18;1.20;;;20.60;48.10;;;;;;5026836;28;20080;-44
2021/03/05 11:38:48;;;;;;;1.83;1.15;;;20.60;48.10;;;;;;5030337;28;20043;-49
2021/03/05 11:41:16;;;;;;;2.00;1.40;;;20.60;48.00;;;;;;5026530;28;20085;-48
2021/03/05 11:43:47;;;;;;;3.65;1.48;;;20.60;48.00;;;;;;5029088;28;20030;-45
2021/03/05 11:46:14;;;;;;;2.45;1.40;;;20.60;48.00;;;;;;5028320;28;20061;-46
2021/03/05 11:48:40;;;;;;;2.80;1.02;;;20.60;47.80;;;;;;5026485;28;20432;-46
2021/03/05 11:51:07;;;;;;;5.55;1.42;;;20.60;47.90;;;;;;5029748;28;20025;-45
2021/03/05 11:53:32;;;;;;;2.03;1.23;;;20.60;47.70;;;;;;5027722;28;20099;-44
2021/03/05 11:55:58;;;;;;;2.38;1.30;;;20.60;47.80;;;;;;5027406;28;20029;-45
2021/03/05 11:58:23;;;;;;;1.75;1.23;;;20.60;47.70;;;;;;5012373;28;20052;-49
2021/03/05 12:00:49;;;;;;;3.40;1.30;;;20.60;47.60;;;;;;5028242;28;20042;-47
2021/03/05 12:03:15;;;;;;;2.05;1.17;;;20.60;48.30;;;;;;5022649;28;20116;-46
2021/03/05 12:05:41;;;;;;;2.38;1.00;;;20.60;47.60;;;;;;5011945;28;20505;-45
2021/03/05 12:08:07;;;;;;;3.50;1.30;;;20.60;47.50;;;;;;5008740;28;20026;-45
2021/03/05 12:10:33;;;;;;;1.77;1.10;;;20.60;47.60;;;;;;5025512;28;20474;-45
2021/03/05 12:12:58;;;;;;;2.50;1.20;;;20.60;47.50;;;;;;5026457;28;20436;-46
2021/03/05 12:15:24;;;;;;;4.97;1.33;;;20.60;47.50;;;;;;5025911;28;20053;-45
2021/03/05 12:17:50;;;;;;;2.67;1.30;;;20.60;47.50;;;;;;5029745;28;20497;-45
2021/03/05 12:20:16;;;;;;;2.00;1.13;;;20.60;47.40;;;;;;5029543;28;20132;-48
2021/03/05 12:22:41;;;;;;;3.35;1.20;;;20.60;47.40;;;;;;5029313;28;20072;-45
2021/03/05 12:25:08;;;;;;;1.52;1.00;;;20.60;47.40;;;;;;5029661;28;20029;-47
2021/03/05 12:27:33;;;;;;;4.82;1.52;;;20.60;47.30;;;;;;5023987;28;20034;-44
2021/03/05 12:30:00;;;;;;;2.90;1.42;;;20.70;47.30;;;;;;5032071;28;20047;-47
2021/03/05 12:32:25;;;;;;;7.78;1.33;;;20.60;47.30;;;;;;5027120;28;20037;-48
2021/03/05 12:34:51;;;;;;;4.18;1.60;;;20.70;47.20;;;;;;5026034;28;20083;-44
2021/03/05 12:37:17;;;;;;;6.03;1.58;;;20.70;47.20;;;;;;5030932;28;20124;-52
2021/03/05 12:39:43;;;;;;;6.28;1.23;;;20.70;47.20;;;;;;5029407;28;20033;-50
2021/03/05 12:42:09;;;;;;;3.50;1.63;;;20.70;47.30;;;;;;5025980;28;20032;-51
2021/03/05 12:44:35;;;;;;;5.45;1.70;;;20.70;47.50;;;;;;5024079;28;20036;-45
2021/03/05 12:47:01;;;;;;;4.40;1.38;;;20.80;47.60;;;;;;5025403;28;20541;-47
2021/03/05 12:49:26;;;;;;;10.38;1.63;;;20.70;47.60;;;;;;5022635;28;20030;-51
2021/03/05 12:51:52;;;;;;;5.25;1.50;;;20.70;47.90;;;;;;5024548;28;20113;-47
2021/03/05 12:54:18;;;;;;;6.20;1.60;;;20.70;48.00;;;;;;5008410;28;20076;-49
2021/03/05 12:56:43;;;;;;;5.15;1.10;;;20.70;48.10;;;;;;5021440;28;20022;-52